Airfield :
LOGIN :

Register | Disclaimer

   EN    FR    IT 

 










Legend :    VFR   Marginal VFR   IFR   Intensive IFR   Very Intensive IFR
Visi :
Ceiling :
>= 8 km
>= 3000ft
5 to 8 km
1000 to 3000 ft
1500m to 5 km
500 to 1000 ft
800 to 1500m
200 to 500 ft
< 800m
< 200 ft
Symbols :   Thunderstorms  Fog  Heavy snow  Heavy precipitations  Wind > 20 kt
SIGMETs :     Misc.  Thunderstorms  Icing  Turbulence  Mountain Waves  Volcanic Ashes






- Airport Elevation : 326 ft
- IATA code : LCG


LECO - A Coruna

CURRENT METAR :
  • 271808Z 27009KT 230V300 8000 SHRA FEW025 SCT033 SCT035TCU 12/09 Q1022 NOSIG

EXPIRED METARs :
  • 271730Z 25010KT 210V290 9999 VCSH FEW018 SCT029 SCT034TCU 12/09 Q1021 NOSIG
  • 271700Z 26006KT 240V300 9999 -SHRA FEW028 SCT030 FEW034TCU 13/09 Q1021 NOSIG
  • 271630Z 27007KT 210V300 9999 FEW025 SCT031 FEW034TCU 14/09 Q1021 NOSIG
  • 271600Z 28005KT 240V320 9999 FEW018 SCT036 14/09 Q1021 TEMPO 3000 SHRA BKN010 SCT030TCU
  • 271530Z 30007KT 230V010 9999 FEW020 SCT042 14/09 Q1021 TEMPO 3000 SHRA BKN010 SCT030TCU
  • 271500Z 29007KT 250V330 9999 FEW015 SCT037 BKN042 13/11 Q1020 TEMPO 3000 SHRA BKN010 SCT030TCU

TAF TAF LECO
Valid from the 27 at 15:00 until the 28 at 15:00 UTC


271400Z 2715/2815 28010KT 9999 FEW030 BKN040 TX14/2813Z TN09/2806Z
TEMPO 2715/2720 RA
PROB40
TEMPO 2715/2716 3000 SHRA BKN010 SCT035TCU
BECMG 2721/2801 22009KT
PROB30
TEMPO 2800/2815 RA
PROB40
TEMPO 2809/2815 28010KT



MET'MAP, your aeronautical weather chart ! - Copyright ORBIFLY December 2007 - Disclaimer

ORBIFLY MET'MAP TEAM :

Programming & Development : Alexandra Zaïnal
Original concept : Baudouin d'Aumeries
Technical & hardware support : Manuel Goepfert
Assistance : Marc-Olivier Méhu




SOURCES & CREDITS :

   NOAA